Página principal
METAR-TAF:

METAR-TAF

Aeroportos :

El Hierro, Espanha

latitude: 27-49N, longitude: 017-53W, altura: 32 m

Observação actual do tempo

O boletim foi feito há 22 minutos, às 11:00 UTC
Vento 5 kt de nor-nordeste, variando entre norte e es-nordeste
Temperatura 25°C
Humidade 65%
Pressão 1019 hPa
Visibilidade 10 km ou mais
Poucas nuvensa uma altura de 3000 ft

METAR: GCHI 231100Z 02005KT 350V060 9999 FEW030 25/18 Q1019

Hora: 12:22 (11:22 UTC)

Previsão

O boletim foi feito há 3 horas e 22 minutos, às 08:00 UTC
Previsão válida de 23 às 09 UTC a 24 às 09 UTC
Vento 8 kt de su-sudoeste
Visibilidade 10 km ou mais
Nuvens dispersasa uma altura de 3000 ft
Probabilidade 30% :
Temporariamente
de 24 às 02 UTC a 24 às 09 UTC
Visibilidade: 4500 m
Poucas nuvensa uma altura de 3000 ft, Cumulus congestus.
chuva

TAF: GCHI 230800Z 2309/2409 20008KT 9999 SCT030 TX26/2314Z TN20/2405Z PROB30 TEMPO 2402/2409 4500 RA FEW030TCU

Observações e previsões do tempo de mais de 4000 aeroportos (mensagens METAR e TAF).

As estações disponíveis são os pontos amarelos e vermelhos sobre o mapa.

Mova o rato sobre o mapa para ver o nome da estação.

Depois clique no ponto para visualizar as observações e previsões meteorológicas.

Para alterar o mapa : clique nos botões verdes com uma cruz preta para aumentar o zoom; no botão verde com uma pitada de zoom; ou nas setas verdes para mapas adjacentes.


METAR-TAF: